createdAt,value
2022-10-17T00:00:50.802Z,9.20
2022-10-17T00:01:48.157Z,9.62
2022-10-17T00:02:45.528Z,10.10
2022-10-17T00:03:42.886Z,9.84
2022-10-17T00:04:40.193Z,10.13
2022-10-17T00:05:41.618Z,9.95
2022-10-17T00:06:39.568Z,9.58
2022-10-17T00:07:36.856Z,9.77
2022-10-17T00:08:34.804Z,9.74
2022-10-17T00:09:32.216Z,9.37
2022-10-17T00:10:29.543Z,9.58
2022-10-17T00:11:27.461Z,9.80
2022-10-17T00:12:24.903Z,10.13
2022-10-17T00:13:22.243Z,9.90
2022-10-17T00:14:19.633Z,9.85
2022-10-17T00:15:20.984Z,10.74
2022-10-17T00:16:28.143Z,10.54
2022-10-17T00:17:25.785Z,10.18
2022-10-17T00:18:23.395Z,10.42
2022-10-17T00:19:20.679Z,11.48
2022-10-17T00:20:18.133Z,11.28
2022-10-17T00:21:16.878Z,10.86
2022-10-17T00:22:14.378Z,11.03
2022-10-17T00:23:11.801Z,10.39
2022-10-17T00:24:09.105Z,10.66
2022-10-17T00:25:06.946Z,10.82
2022-10-17T00:26:05.753Z,10.87
2022-10-17T00:27:03.335Z,10.76
2022-10-17T00:28:00.658Z,9.74
2022-10-17T00:28:58.171Z,9.64
2022-10-17T00:29:55.598Z,10.10
2022-10-17T00:31:00.229Z,10.37
2022-10-17T00:31:57.701Z,10.54
2022-10-17T00:32:55.040Z,10.49
2022-10-17T00:33:53.282Z,10.52
2022-10-17T00:34:50.569Z,10.30
2022-10-17T00:35:47.860Z,9.79
2022-10-17T00:36:45.156Z,9.97
2022-10-17T00:37:42.462Z,9.92
2022-10-17T00:38:40.370Z,10.05
2022-10-17T00:39:37.877Z,10.43
2022-10-17T00:40:35.163Z,9.99
2022-10-17T00:41:33.557Z,9.75
2022-10-17T00:42:31.157Z,10.02
2022-10-17T00:43:29.806Z,10.26
2022-10-17T00:44:29.886Z,10.27
2022-10-17T00:45:28.782Z,9.86
2022-10-17T00:46:28.276Z,10.75
2022-10-17T00:47:25.719Z,10.52
2022-10-17T00:48:25.168Z,10.17
2022-10-17T00:49:23.829Z,10.41
2022-10-17T00:50:22.260Z,10.20
2022-10-17T00:51:22.901Z,10.18
2022-10-17T00:52:27.312Z,9.39
2022-10-17T00:53:24.903Z,9.91
2022-10-17T00:54:26.613Z,9.94
2022-10-17T00:55:29.345Z,10.25
2022-10-17T00:56:26.982Z,10.30
2022-10-17T00:57:25.205Z,10.31
2022-10-17T00:58:22.625Z,10.76
2022-10-17T00:59:22.063Z,10.17
2022-10-17T01:00:22.621Z,10.53
2022-10-17T01:01:19.989Z,10.33
2022-10-17T01:02:19.766Z,9.15
2022-10-17T01:03:17.112Z,9.75
2022-10-17T01:04:14.746Z,9.58
2022-10-17T01:05:13.079Z,9.90
2022-10-17T01:06:10.368Z,9.64
2022-10-17T01:07:08.015Z,10.22
2022-10-17T01:08:05.953Z,9.59
2022-10-17T01:09:03.417Z,10.62
2022-10-17T01:10:01.492Z,10.48
2022-10-17T01:10:58.878Z,10.17
2022-10-17T01:12:05.956Z,9.86
2022-10-17T01:13:11.372Z,9.83
2022-10-17T01:14:16.330Z,9.64
2022-10-17T01:15:19.344Z,9.74
2022-10-17T01:16:36.424Z,10.03
2022-10-17T01:17:45.653Z,10.11
2022-10-17T01:18:52.547Z,9.27
2022-10-17T01:19:58.667Z,10.14
2022-10-17T01:21:01.833Z,10.29
2022-10-17T01:22:01.847Z,10.39
2022-10-17T01:23:13.658Z,10.58
2022-10-17T01:24:29.630Z,10.21
2022-10-17T01:25:46.491Z,9.27
2022-10-17T01:27:02.377Z,9.67
2022-10-17T01:28:19.957Z,9.96
2022-10-17T01:29:35.877Z,8.87
2022-10-17T01:30:46.118Z,10.05
2022-10-17T01:31:46.285Z,8.97
2022-10-17T01:32:44.029Z,9.12
2022-10-17T01:34:04.026Z,9.33
2022-10-17T01:35:11.232Z,8.84
2022-10-17T01:36:25.342Z,9.06
2022-10-17T01:37:33.911Z,9.15
2022-10-17T01:38:36.681Z,8.93
2022-10-17T01:39:38.424Z,9.14
2022-10-17T01:40:50.209Z,9.07
2022-10-17T01:41:53.986Z,8.75
2022-10-17T01:43:11.530Z,8.89
2022-10-17T01:44:13.398Z,9.97
2022-10-17T01:45:18.634Z,9.02
2022-10-17T01:46:23.955Z,8.97
2022-10-17T01:47:25.706Z,9.45
2022-10-17T01:48:27.084Z,9.93
2022-10-17T01:49:28.530Z,9.54
2022-10-17T01:50:30.190Z,9.61
2022-10-17T01:51:47.734Z,9.31
2022-10-17T01:52:48.630Z,10.08
2022-10-17T01:53:51.189Z,9.31
2022-10-17T01:55:03.910Z,10.08
2022-10-17T01:56:03.875Z,10.26
2022-10-17T01:57:05.978Z,10.25
2022-10-17T01:58:11.643Z,10.29
2022-10-17T01:59:14.219Z,9.84
2022-10-17T02:00:15.551Z,10.43
2022-10-17T02:01:13.504Z,10.03
2022-10-17T02:02:14.019Z,10.63
2022-10-17T02:03:16.648Z,9.78
2022-10-17T02:04:14.011Z,10.60
2022-10-17T02:05:11.410Z,10.51
2022-10-17T02:06:08.754Z,10.29
2022-10-17T02:07:09.831Z,9.80
2022-10-17T02:08:07.417Z,10.41
2022-10-17T02:09:22.926Z,10.49
2022-10-17T02:10:38.728Z,10.36
2022-10-17T02:11:36.046Z,10.47
2022-10-17T02:12:45.413Z,10.06
2022-10-17T02:13:51.546Z,10.60
2022-10-17T02:15:11.100Z,10.32
2022-10-17T02:16:27.217Z,9.94
2022-10-17T02:17:27.472Z,10.53
2022-10-17T02:18:25.052Z,11.14
2022-10-17T02:19:43.930Z,10.96
2022-10-17T02:20:50.816Z,11.33
2022-10-17T02:21:54.216Z,11.06
2022-10-17T02:22:57.878Z,10.88
2022-10-17T02:23:55.210Z,9.68
2022-10-17T02:25:01.941Z,10.43
2022-10-17T02:25:59.206Z,10.38
2022-10-17T02:27:04.721Z,10.81
2022-10-17T02:28:07.905Z,11.34
2022-10-17T02:29:07.987Z,10.60
2022-10-17T02:30:13.213Z,11.40
2022-10-17T02:31:16.491Z,10.66
2022-10-17T02:33:32.493Z,11.38
2022-10-17T02:34:50.977Z,10.71
2022-10-17T02:35:53.730Z,11.17
2022-10-17T02:36:54.684Z,11.95
2022-10-17T02:37:53.579Z,11.43
2022-10-17T02:38:53.471Z,11.35
2022-10-17T02:39:50.946Z,11.20
2022-10-17T02:40:51.093Z,10.61
2022-10-17T02:41:50.396Z,10.99
2022-10-17T02:42:49.781Z,10.73
2022-10-17T02:43:49.821Z,11.32
2022-10-17T02:44:47.918Z,10.45
2022-10-17T02:45:46.910Z,10.63
2022-10-17T02:46:48.713Z,10.26
2022-10-17T02:47:48.847Z,9.83
2022-10-17T02:48:52.002Z,10.38
2022-10-17T02:49:53.956Z,10.49
2022-10-17T02:50:53.990Z,10.74
2022-10-17T02:52:03.090Z,10.95
2022-10-17T02:53:06.047Z,9.80
2022-10-17T02:54:21.969Z,10.39
2022-10-17T02:55:23.386Z,11.26
2022-10-17T02:56:21.613Z,10.71
2022-10-17T02:57:23.158Z,11.10
2022-10-17T02:58:25.127Z,11.10
2022-10-17T02:59:25.344Z,11.33
2022-10-17T03:00:25.023Z,10.66
2022-10-17T03:01:22.580Z,10.69
2022-10-17T03:02:19.943Z,10.55
2022-10-17T03:03:20.043Z,10.63
2022-10-17T03:04:18.206Z,10.88
2022-10-17T03:05:20.598Z,10.75
2022-10-17T03:06:17.998Z,10.68
2022-10-17T03:07:15.379Z,10.85
2022-10-17T03:08:12.729Z,10.69
2022-10-17T03:09:10.046Z,10.56
2022-10-17T03:10:07.486Z,10.91
2022-10-17T03:11:04.797Z,10.92
2022-10-17T03:12:02.231Z,10.71
2022-10-17T03:12:59.516Z,9.97
2022-10-17T03:13:56.828Z,10.92
2022-10-17T03:14:54.128Z,10.57
2022-10-17T03:15:51.549Z,10.47
2022-10-17T03:16:48.885Z,10.83
2022-10-17T03:18:50.086Z,10.70
2022-10-17T03:19:47.771Z,10.60
2022-10-17T03:20:45.194Z,10.52
2022-10-17T03:21:42.554Z,10.81
2022-10-17T03:22:39.859Z,10.94
2022-10-17T03:23:37.215Z,11.01
2022-10-17T03:24:34.583Z,10.47
2022-10-17T03:25:31.897Z,10.59
2022-10-17T03:26:29.783Z,10.78
2022-10-17T03:27:27.364Z,11.52
2022-10-17T03:28:25.164Z,10.84
2022-10-17T03:29:22.514Z,11.06
2022-10-17T03:30:19.876Z,10.83
2022-10-17T03:31:19.635Z,10.80
2022-10-17T03:32:16.976Z,11.42
2022-10-17T03:33:14.271Z,10.86
2022-10-17T03:34:12.621Z,11.30
2022-10-17T03:35:14.049Z,11.56
2022-10-17T03:36:14.644Z,11.27
2022-10-17T03:37:11.955Z,10.82
2022-10-17T03:38:09.271Z,11.52
2022-10-17T03:39:06.577Z,11.46
2022-10-17T03:40:04.081Z,11.54
2022-10-17T03:41:02.177Z,11.51
2022-10-17T03:41:59.518Z,11.34
2022-10-17T03:42:57.144Z,11.23
2022-10-17T03:43:54.583Z,11.82
2022-10-17T03:44:51.949Z,11.64
2022-10-17T03:45:49.276Z,10.90
2022-10-17T03:46:46.610Z,11.52
2022-10-17T03:47:43.902Z,11.30
2022-10-17T03:48:41.214Z,11.41
2022-10-17T03:49:38.530Z,10.56
2022-10-17T03:50:35.843Z,11.13
2022-10-17T03:51:35.074Z,11.83
2022-10-17T03:52:32.393Z,11.58
2022-10-17T03:53:29.700Z,11.64
2022-10-17T03:54:27.036Z,11.28
2022-10-17T03:55:24.417Z,11.54
2022-10-17T03:56:23.439Z,12.00
2022-10-17T03:57:20.949Z,11.68
2022-10-17T03:58:18.305Z,11.40
2022-10-17T03:59:16.181Z,10.98
2022-10-17T04:00:13.682Z,11.31
2022-10-17T04:01:12.708Z,11.31
2022-10-17T04:02:10.230Z,11.49
2022-10-17T04:03:07.624Z,11.21
2022-10-17T04:04:05.015Z,10.93
2022-10-17T04:05:02.369Z,11.24
2022-10-17T04:06:00.922Z,11.99
2022-10-17T04:06:58.199Z,11.52
2022-10-17T04:07:55.682Z,11.24
2022-10-17T04:08:53.009Z,11.81
2022-10-17T04:09:50.305Z,11.95
2022-10-17T04:10:47.618Z,11.67
2022-10-17T04:11:44.945Z,11.55
2022-10-17T04:12:42.297Z,11.85
2022-10-17T04:13:39.663Z,11.29
2022-10-17T04:14:37.241Z,11.03
2022-10-17T04:15:34.594Z,11.01
2022-10-17T04:16:31.897Z,11.02
2022-10-17T04:17:35.808Z,11.24
2022-10-17T04:18:35.546Z,12.30
2022-10-17T04:19:32.954Z,11.26
2022-10-17T04:20:30.329Z,11.65
2022-10-17T04:21:28.941Z,12.62
2022-10-17T04:22:27.087Z,11.23
2022-10-17T04:23:26.566Z,11.55
2022-10-17T04:24:25.188Z,11.08
2022-10-17T04:25:22.519Z,11.83
2022-10-17T04:26:19.817Z,11.75
2022-10-17T04:27:17.126Z,11.28
2022-10-17T04:28:14.525Z,11.33
2022-10-17T04:29:11.852Z,11.75
2022-10-17T04:30:09.381Z,11.85
2022-10-17T04:31:07.942Z,11.86
2022-10-17T04:32:05.357Z,12.41
2022-10-17T04:33:02.934Z,11.65
2022-10-17T04:34:00.283Z,12.06
2022-10-17T04:34:57.573Z,11.80
2022-10-17T04:35:58.923Z,11.09
2022-10-17T04:36:56.223Z,11.46
2022-10-17T04:37:54.485Z,11.18
2022-10-17T04:38:52.827Z,11.02
2022-10-17T04:39:50.121Z,11.48
2022-10-17T04:40:47.532Z,11.29
2022-10-17T04:41:44.828Z,11.78
2022-10-17T04:42:42.300Z,11.45
2022-10-17T04:43:40.239Z,10.95
2022-10-17T04:44:37.703Z,11.86
2022-10-17T04:45:34.980Z,11.31
2022-10-17T04:46:33.386Z,11.03
2022-10-17T04:47:30.669Z,11.28
2022-10-17T04:48:29.366Z,10.97
2022-10-17T04:49:26.898Z,11.36
2022-10-17T04:50:24.195Z,11.12
2022-10-17T04:51:24.440Z,11.33
2022-10-17T04:52:25.123Z,11.88
2022-10-17T04:53:22.766Z,11.38
2022-10-17T04:54:20.044Z,11.74
2022-10-17T04:55:17.397Z,10.98
2022-10-17T04:56:16.851Z,11.15
2022-10-17T04:57:14.486Z,11.33
2022-10-17T04:58:11.776Z,12.24
2022-10-17T04:59:09.074Z,12.04
2022-10-17T05:00:06.646Z,11.00
2022-10-17T05:01:22.819Z,11.16
2022-10-17T05:02:20.407Z,12.32
2022-10-17T05:03:17.743Z,11.17
2022-10-17T05:04:15.086Z,11.45
2022-10-17T05:05:12.376Z,11.73
2022-10-17T05:06:13.715Z,12.11
2022-10-17T05:07:11.015Z,11.59
2022-10-17T05:08:09.823Z,11.87
2022-10-17T05:09:07.152Z,12.54
2022-10-17T05:10:04.558Z,12.68
2022-10-17T05:11:02.356Z,12.13
2022-10-17T05:11:59.725Z,11.83
2022-10-17T05:12:57.078Z,12.24
2022-10-17T05:13:58.673Z,12.22
2022-10-17T05:14:56.038Z,12.88
2022-10-17T05:15:53.555Z,11.72
2022-10-17T05:16:50.878Z,11.53
2022-10-17T05:17:48.171Z,11.65
2022-10-17T05:18:52.446Z,11.79
2022-10-17T05:19:50.181Z,20.12
2022-10-17T05:20:47.522Z,17.65
2022-10-17T05:21:44.848Z,13.65
2022-10-17T05:22:42.470Z,13.60
2022-10-17T05:23:39.831Z,12.32
2022-10-17T05:24:37.180Z,11.20
2022-10-17T05:25:34.487Z,12.48
2022-10-17T05:26:31.785Z,11.73
2022-10-17T05:27:29.102Z,11.50
2022-10-17T05:28:26.486Z,12.04
2022-10-17T05:29:23.891Z,16.69
2022-10-17T05:30:21.237Z,60.04
2022-10-17T05:31:18.778Z,29.38
2022-10-17T05:32:16.324Z,123.18
2022-10-17T05:33:13.856Z,412.56
2022-10-17T05:34:13.182Z,131.94
2022-10-17T05:35:11.310Z,115.62
2022-10-17T05:36:08.932Z,125.65
2022-10-17T05:37:06.244Z,89.83
2022-10-17T05:38:03.552Z,66.80
2022-10-17T05:39:00.866Z,32.19
2022-10-17T05:39:58.258Z,33.59
2022-10-17T05:40:59.051Z,95.67
2022-10-17T05:41:56.467Z,56.72
2022-10-17T05:42:53.988Z,21.75
2022-10-17T05:43:51.421Z,16.02
2022-10-17T05:44:48.798Z,14.99
2022-10-17T05:45:46.116Z,21.21
2022-10-17T05:46:43.982Z,56.68
2022-10-17T05:47:41.584Z,33.36
2022-10-17T05:48:39.028Z,16.10
2022-10-17T05:49:52.602Z,23.83
2022-10-17T05:50:50.145Z,31.77
2022-10-17T05:51:47.499Z,20.33
2022-10-17T05:52:46.508Z,17.48
2022-10-17T05:53:44.600Z,13.90
2022-10-17T05:54:41.917Z,12.79
2022-10-17T05:55:39.270Z,12.25
2022-10-17T05:56:36.925Z,11.97
2022-10-17T05:57:34.506Z,13.40
2022-10-17T05:58:49.218Z,12.90
2022-10-17T05:59:47.435Z,28.51
2022-10-17T06:01:47.010Z,14.38
2022-10-17T06:02:46.054Z,13.22
2022-10-17T06:03:43.390Z,11.74
2022-10-17T06:04:45.421Z,12.87
2022-10-17T06:05:42.743Z,13.25
2022-10-17T06:06:40.641Z,13.20
2022-10-17T06:07:37.971Z,12.64
2022-10-17T06:08:35.392Z,14.87
2022-10-17T06:09:32.746Z,13.99
2022-10-17T06:10:30.155Z,14.09
2022-10-17T06:11:27.486Z,13.17
2022-10-17T06:12:24.992Z,12.65
2022-10-17T06:13:22.334Z,14.36
2022-10-17T06:14:20.877Z,16.74
2022-10-17T06:15:18.380Z,19.53
2022-10-17T06:16:15.709Z,19.32
2022-10-17T06:17:15.951Z,19.82
2022-10-17T06:18:13.801Z,59.48
2022-10-17T06:19:11.658Z,53.18
2022-10-17T06:20:09.312Z,27.57
2022-10-17T06:21:11.057Z,17.93
2022-10-17T06:22:08.689Z,15.68
2022-10-17T06:23:06.466Z,19.01
2022-10-17T06:24:03.838Z,17.39
2022-10-17T06:25:01.162Z,18.33
2022-10-17T06:25:59.958Z,28.52
2022-10-17T06:26:57.817Z,39.72
2022-10-17T06:27:55.186Z,41.37
2022-10-17T06:28:54.345Z,28.92
2022-10-17T06:29:51.736Z,219.31
2022-10-17T06:30:49.112Z,241.97
2022-10-17T06:31:46.501Z,99.84
2022-10-17T06:32:43.956Z,110.42
2022-10-17T06:33:42.153Z,60.75
2022-10-17T06:34:39.543Z,41.05
2022-10-17T06:35:36.976Z,26.62
2022-10-17T06:36:34.378Z,23.39
2022-10-17T06:37:36.237Z,18.06
2022-10-17T06:38:35.413Z,32.23
2022-10-17T06:39:34.472Z,25.84
2022-10-17T06:40:31.828Z,18.90
2022-10-17T06:41:29.152Z,14.62
2022-10-17T06:42:26.541Z,14.80
2022-10-17T06:43:27.753Z,16.03
2022-10-17T06:44:28.562Z,14.73
2022-10-17T06:45:25.998Z,14.19
2022-10-17T06:46:26.690Z,15.55
2022-10-17T06:47:24.008Z,15.10
2022-10-17T06:48:21.343Z,14.74
2022-10-17T06:49:18.780Z,14.47
2022-10-17T06:50:16.187Z,14.89
2022-10-17T06:51:13.739Z,15.08
2022-10-17T06:52:11.066Z,13.84
2022-10-17T06:53:08.394Z,14.35
2022-10-17T06:54:05.766Z,14.81
2022-10-17T06:56:06.923Z,17.71
2022-10-17T06:57:04.309Z,15.62
2022-10-17T06:58:01.627Z,16.83
2022-10-17T06:58:59.017Z,15.07
2022-10-17T06:59:57.657Z,16.51
2022-10-17T07:01:01.333Z,15.07
2022-10-17T07:01:58.871Z,14.97
2022-10-17T07:02:56.197Z,13.91
2022-10-17T07:03:53.619Z,14.84
2022-10-17T07:04:50.933Z,16.88
2022-10-17T07:05:51.686Z,16.96
2022-10-17T07:06:50.409Z,15.15
2022-10-17T07:07:50.953Z,15.31
2022-10-17T07:08:50.494Z,15.31
2022-10-17T07:09:47.794Z,16.41
2022-10-17T07:10:45.114Z,16.20
2022-10-17T07:11:42.535Z,14.90
2022-10-17T07:12:39.931Z,16.06
2022-10-17T07:13:39.333Z,15.19
2022-10-17T07:14:36.938Z,17.56
2022-10-17T07:15:34.257Z,18.60
2022-10-17T07:16:31.608Z,15.96
2022-10-17T07:17:29.155Z,20.91
2022-10-17T07:18:26.703Z,18.95
2022-10-17T07:19:24.036Z,16.14
2022-10-17T07:20:21.372Z,16.76
2022-10-17T07:21:18.749Z,16.25
2022-10-17T07:22:17.052Z,16.30
2022-10-17T07:23:14.689Z,19.87
2022-10-17T07:24:12.127Z,27.41
2022-10-17T07:25:09.932Z,27.08
2022-10-17T07:26:09.368Z,16.13
2022-10-17T07:27:07.845Z,16.90
2022-10-17T07:28:06.544Z,17.53
2022-10-17T07:29:06.978Z,17.49
2022-10-17T07:30:05.693Z,21.90
2022-10-17T07:31:07.479Z,19.64
2022-10-17T07:32:08.523Z,21.65
2022-10-17T07:33:05.857Z,22.29
2022-10-17T07:34:03.735Z,19.46
2022-10-17T07:35:01.157Z,23.58
2022-10-17T07:36:00.214Z,22.28
2022-10-17T07:36:57.646Z,17.28
2022-10-17T07:37:56.073Z,18.27
2022-10-17T07:38:53.411Z,25.47
2022-10-17T07:39:50.788Z,23.13
2022-10-17T07:40:53.551Z,18.41
2022-10-17T07:41:50.943Z,16.59
2022-10-17T07:42:48.466Z,18.22
2022-10-17T07:43:45.830Z,18.56
2022-10-17T07:44:44.195Z,16.74
2022-10-17T07:45:41.925Z,16.23
2022-10-17T07:46:39.267Z,19.12
2022-10-17T07:47:36.594Z,16.43
2022-10-17T07:48:34.526Z,16.06
2022-10-17T07:49:31.860Z,15.72
2022-10-17T07:50:29.322Z,15.88
2022-10-17T07:51:27.952Z,15.66
2022-10-17T07:52:25.352Z,15.89
2022-10-17T07:53:24.206Z,15.43
2022-10-17T07:54:21.890Z,15.02
2022-10-17T07:55:19.365Z,14.62
2022-10-17T07:56:16.803Z,14.60
2022-10-17T07:57:14.169Z,14.73
2022-10-17T07:58:11.562Z,15.13
2022-10-17T07:59:09.654Z,15.88
2022-10-17T08:00:08.126Z,16.06
2022-10-17T08:01:09.467Z,15.77
2022-10-17T08:02:20.333Z,15.32
2022-10-17T08:03:17.683Z,14.92
2022-10-17T08:04:16.837Z,14.58
2022-10-17T08:05:14.249Z,14.82
2022-10-17T08:06:11.969Z,15.10
2022-10-17T08:07:21.861Z,14.34
2022-10-17T08:08:21.719Z,15.17
2022-10-17T08:09:19.704Z,13.93
2022-10-17T08:10:17.076Z,13.69
2022-10-17T08:11:15.394Z,14.75
2022-10-17T08:12:14.912Z,14.77
2022-10-17T08:13:12.242Z,15.70
2022-10-17T08:14:13.217Z,14.50
2022-10-17T08:15:10.723Z,14.54
2022-10-17T08:16:09.950Z,14.79
2022-10-17T08:17:07.474Z,15.94
2022-10-17T08:18:04.860Z,15.04
2022-10-17T08:19:02.389Z,14.33
2022-10-17T08:19:59.765Z,14.74
2022-10-17T08:21:00.425Z,15.17
2022-10-17T08:21:59.276Z,14.78
2022-10-17T08:22:56.645Z,15.36
2022-10-17T08:23:54.498Z,15.19
2022-10-17T08:24:51.836Z,15.11
2022-10-17T08:25:49.127Z,15.30
2022-10-17T08:26:49.556Z,16.29
2022-10-17T08:27:49.279Z,14.82
2022-10-17T08:28:47.397Z,14.18
2022-10-17T08:29:48.437Z,13.26
2022-10-17T08:30:45.916Z,13.38
2022-10-17T08:31:47.435Z,13.45
2022-10-17T08:32:45.689Z,13.28
2022-10-17T08:33:42.992Z,13.48
2022-10-17T08:34:42.100Z,14.27
2022-10-17T08:35:41.177Z,14.46
2022-10-17T08:36:39.762Z,14.22
2022-10-17T08:37:37.479Z,13.84
2022-10-17T08:38:36.897Z,14.68
2022-10-17T08:39:35.546Z,14.02
2022-10-17T08:40:36.519Z,12.78
2022-10-17T08:41:34.020Z,12.07
2022-10-17T08:42:49.584Z,12.51
2022-10-17T08:43:58.866Z,11.31
2022-10-17T08:45:20.987Z,9.06
2022-10-17T08:46:20.199Z,8.07
2022-10-17T08:47:27.446Z,9.38
2022-10-17T08:48:27.249Z,10.68
2022-10-17T08:49:27.352Z,9.76
2022-10-17T08:50:43.974Z,9.76
2022-10-17T08:51:49.707Z,9.23
2022-10-17T08:52:56.911Z,7.74
2022-10-17T08:54:02.697Z,5.45
2022-10-17T08:55:00.257Z,6.61
2022-10-17T08:56:01.015Z,11.35
2022-10-17T08:56:58.434Z,13.27
2022-10-17T08:57:55.832Z,12.77
2022-10-17T08:58:53.603Z,14.65
2022-10-17T08:59:52.866Z,19.86
2022-10-17T09:01:13.036Z,20.34
2022-10-17T09:02:10.683Z,24.61
2022-10-17T09:03:08.041Z,14.05
2022-10-17T09:04:11.562Z,12.30
2022-10-17T09:05:08.843Z,13.45
2022-10-17T09:06:08.962Z,18.42
2022-10-17T09:07:15.716Z,19.76
2022-10-17T09:08:32.031Z,17.20
2022-10-17T09:09:29.391Z,13.35
2022-10-17T09:10:32.547Z,17.94
2022-10-17T09:11:47.927Z,18.09
2022-10-17T09:12:48.033Z,13.56
2022-10-17T09:13:45.526Z,16.56
2022-10-17T09:14:43.181Z,14.54
2022-10-17T09:15:53.767Z,13.99
2022-10-17T09:17:03.397Z,15.69
2022-10-17T09:18:00.672Z,18.82
2022-10-17T09:18:58.043Z,16.39
2022-10-17T09:19:55.362Z,14.78
2022-10-17T09:20:58.066Z,14.43
2022-10-17T09:22:00.007Z,13.43
2022-10-17T09:23:04.229Z,12.12
2022-10-17T09:24:09.607Z,10.80
2022-10-17T09:25:16.786Z,14.45
2022-10-17T09:26:15.345Z,11.86
2022-10-17T09:27:35.864Z,12.01
2022-10-17T09:28:38.010Z,15.12
2022-10-17T09:29:40.184Z,11.34
2022-10-17T09:30:45.248Z,11.68
2022-10-17T09:31:47.815Z,10.56
2022-10-17T09:32:47.624Z,11.02
2022-10-17T09:33:54.280Z,11.64
2022-10-17T09:34:55.126Z,11.45
2022-10-17T09:35:52.594Z,12.18
2022-10-17T09:36:49.995Z,12.87
2022-10-17T09:37:49.574Z,12.75
2022-10-17T09:38:52.756Z,13.09
2022-10-17T09:39:50.201Z,13.23
2022-10-17T09:40:56.856Z,13.69
2022-10-17T09:41:56.116Z,13.54
2022-10-17T09:42:53.788Z,12.60
2022-10-17T09:43:56.258Z,12.15
2022-10-17T09:45:16.644Z,13.01
2022-10-17T09:46:13.974Z,11.66
2022-10-17T09:47:11.280Z,11.29
2022-10-17T09:48:17.030Z,11.33
2022-10-17T09:49:26.908Z,11.00
2022-10-17T09:50:34.089Z,11.47
2022-10-17T09:51:32.237Z,11.72
2022-10-17T09:52:34.428Z,11.52
2022-10-17T09:53:36.759Z,11.53
2022-10-17T09:54:43.033Z,10.95
2022-10-17T09:55:40.380Z,10.92
2022-10-17T09:56:56.359Z,9.63
2022-10-17T09:57:58.995Z,9.64
2022-10-17T09:58:57.609Z,9.19
2022-10-17T09:59:57.403Z,8.93
2022-10-17T10:01:16.447Z,9.03
2022-10-17T10:02:18.832Z,7.89
2022-10-17T10:03:16.245Z,8.09
2022-10-17T10:04:14.929Z,8.00
2022-10-17T10:05:17.261Z,7.89
2022-10-17T10:06:17.208Z,7.74
2022-10-17T10:07:14.685Z,7.47
2022-10-17T10:08:16.885Z,7.33
2022-10-17T10:09:27.375Z,7.03
2022-10-17T10:10:27.904Z,7.85
2022-10-17T10:11:44.629Z,7.44
2022-10-17T10:13:01.702Z,6.01
2022-10-17T10:14:11.624Z,7.07
2022-10-17T10:15:27.725Z,5.91
2022-10-17T10:16:32.219Z,6.31
2022-10-17T10:17:35.664Z,6.41
2022-10-17T10:18:35.758Z,5.57
2022-10-17T10:19:34.860Z,5.64
2022-10-17T10:20:35.026Z,5.59
2022-10-17T10:21:32.366Z,5.05
2022-10-17T10:22:29.957Z,5.06
2022-10-17T10:23:27.448Z,4.72
2022-10-17T10:24:30.608Z,4.02
2022-10-17T10:25:28.431Z,4.23
2022-10-17T10:26:28.213Z,3.94
2022-10-17T10:27:27.288Z,3.62
2022-10-17T10:28:28.031Z,3.35
2022-10-17T10:29:37.396Z,3.68
2022-10-17T10:30:39.015Z,3.39
2022-10-17T10:31:39.946Z,3.65
2022-10-17T10:32:37.809Z,3.61
2022-10-17T10:33:41.791Z,3.56
2022-10-17T10:34:46.988Z,3.62
2022-10-17T10:35:52.522Z,3.56
2022-10-17T10:36:53.733Z,3.44
2022-10-17T10:37:54.038Z,3.43
2022-10-17T10:38:59.177Z,3.45
2022-10-17T10:40:02.236Z,3.24
2022-10-17T10:41:07.843Z,2.97
2022-10-17T10:42:08.775Z,3.30
2022-10-17T10:43:06.698Z,3.08
2022-10-17T10:44:06.487Z,3.31
2022-10-17T10:45:03.873Z,3.18
2022-10-17T10:46:03.877Z,3.44
2022-10-17T10:47:27.488Z,3.00
2022-10-17T10:48:26.584Z,3.41
2022-10-17T10:49:29.623Z,3.24
2022-10-17T10:50:32.735Z,3.12
2022-10-17T10:51:39.470Z,2.93
2022-10-17T10:52:48.060Z,3.32
2022-10-17T10:54:04.252Z,3.42
2022-10-17T10:55:18.581Z,3.51
2022-10-17T10:56:26.403Z,3.39
2022-10-17T10:57:28.663Z,3.39
2022-10-17T10:58:49.152Z,3.37
2022-10-17T11:00:12.851Z,2.76
2022-10-17T11:01:16.443Z,3.12
2022-10-17T11:02:25.619Z,3.21
2022-10-17T11:03:30.945Z,3.31
2022-10-17T11:04:30.995Z,3.17
2022-10-17T11:05:47.530Z,3.17
2022-10-17T11:06:45.884Z,3.01
2022-10-17T11:07:43.200Z,3.39
2022-10-17T11:08:45.997Z,3.06
2022-10-17T11:10:00.714Z,3.16
2022-10-17T11:11:07.648Z,3.36
2022-10-17T11:12:14.595Z,3.32
2022-10-17T11:13:18.776Z,3.01
2022-10-17T11:14:25.146Z,3.24
2022-10-17T11:15:36.620Z,3.06
2022-10-17T11:16:37.007Z,3.25
2022-10-17T11:17:51.114Z,3.55
2022-10-17T11:18:57.162Z,3.29
2022-10-17T11:20:09.571Z,2.98
2022-10-17T11:21:26.605Z,3.21
2022-10-17T11:22:29.301Z,3.07
2022-10-17T11:23:38.778Z,3.37
2022-10-17T11:24:42.475Z,3.14
2022-10-17T11:25:41.126Z,3.28
2022-10-17T11:26:45.310Z,3.13
2022-10-17T11:27:42.673Z,3.11
2022-10-17T11:28:40.116Z,3.14
2022-10-17T11:29:40.305Z,3.03
2022-10-17T11:30:46.105Z,3.54
2022-10-17T11:31:48.472Z,3.44
2022-10-17T11:32:55.258Z,3.23
2022-10-17T11:33:58.380Z,2.64
2022-10-17T11:35:00.359Z,3.03
2022-10-17T11:36:02.988Z,3.15
2022-10-17T11:37:04.906Z,3.11
2022-10-17T11:38:17.602Z,3.00
2022-10-17T11:39:18.979Z,3.33
2022-10-17T11:40:23.518Z,3.60
2022-10-17T11:41:31.119Z,3.54
2022-10-17T11:42:35.431Z,3.54
2022-10-17T11:43:37.922Z,3.21
2022-10-17T11:44:36.848Z,3.34
2022-10-17T11:45:40.155Z,3.28
2022-10-17T11:46:40.043Z,3.07
2022-10-17T11:47:54.156Z,3.33
2022-10-17T11:49:16.136Z,3.12
2022-10-17T11:52:04.118Z,3.69
2022-10-17T11:53:21.688Z,3.18
2022-10-17T11:54:26.031Z,3.13
2022-10-17T11:55:25.153Z,3.79
2022-10-17T11:56:31.463Z,2.96
2022-10-17T11:57:49.711Z,3.53
2022-10-17T11:58:53.431Z,3.41
2022-10-17T11:59:56.657Z,3.46
2022-10-17T12:01:03.834Z,3.63
2022-10-17T12:02:10.631Z,3.71
2022-10-17T12:03:07.934Z,3.58
2022-10-17T12:04:08.087Z,3.58
2022-10-17T12:05:11.314Z,3.92
2022-10-17T12:06:29.580Z,3.49
2022-10-17T12:07:27.283Z,3.77
2022-10-17T12:08:39.289Z,3.82
2022-10-17T12:10:06.041Z,3.85
2022-10-17T12:11:09.630Z,4.20
2022-10-17T12:12:07.076Z,3.76
2022-10-17T12:13:22.819Z,3.88
2022-10-17T12:14:40.509Z,3.87
2022-10-17T12:15:37.829Z,3.67
2022-10-17T12:16:35.144Z,3.69
2022-10-17T12:17:36.956Z,3.90
2022-10-17T12:18:34.373Z,3.86
2022-10-17T12:19:36.546Z,4.13
2022-10-17T12:20:35.613Z,3.88
2022-10-17T12:21:51.559Z,4.09
2022-10-17T12:22:53.814Z,3.95
2022-10-17T12:23:53.063Z,4.18
2022-10-17T12:25:01.713Z,4.36
2022-10-17T12:26:04.500Z,4.02
2022-10-17T12:27:21.046Z,4.19
2022-10-17T12:28:27.154Z,4.03
2022-10-17T12:29:29.850Z,3.95
2022-10-17T12:30:27.790Z,4.48
2022-10-17T12:31:32.673Z,4.33
2022-10-17T12:32:46.888Z,3.99
2022-10-17T12:33:49.026Z,4.30
2022-10-17T12:34:54.604Z,4.13
2022-10-17T12:36:11.832Z,4.28
2022-10-17T12:37:11.851Z,4.44
2022-10-17T12:38:20.104Z,3.96
2022-10-17T12:39:17.670Z,4.15
2022-10-17T12:40:33.661Z,4.15
2022-10-17T12:41:40.149Z,4.14
2022-10-17T12:42:47.320Z,4.35
2022-10-17T12:44:52.147Z,4.29
2022-10-17T12:45:51.638Z,5.01
2022-10-17T12:46:49.318Z,5.19
2022-10-17T12:47:46.643Z,4.81
2022-10-17T12:48:44.325Z,4.90
2022-10-17T12:49:47.767Z,4.66
2022-10-17T12:51:30.857Z,4.44
2022-10-17T12:52:20.531Z,4.65
2022-10-17T12:53:25.065Z,4.68
2022-10-17T12:54:22.701Z,4.84
2022-10-17T12:55:24.391Z,4.72
2022-10-17T12:56:30.275Z,4.98
2022-10-17T12:57:32.948Z,4.84
2022-10-17T12:58:30.901Z,4.70
2022-10-17T12:59:29.510Z,4.87
2022-10-17T13:00:35.089Z,5.04
2022-10-17T13:01:35.092Z,4.55
2022-10-17T13:02:33.626Z,4.77
2022-10-17T13:03:33.662Z,4.72
2022-10-17T13:04:31.934Z,4.47
2022-10-17T13:05:40.075Z,4.71
2022-10-17T13:06:44.600Z,4.68
2022-10-17T13:07:44.979Z,5.19
2022-10-17T13:08:53.539Z,4.78
2022-10-17T13:09:52.297Z,4.93
2022-10-17T13:10:52.572Z,5.27
2022-10-17T13:11:50.565Z,4.80
2022-10-17T13:12:50.099Z,4.67
2022-10-17T13:13:52.676Z,4.86
2022-10-17T13:14:51.013Z,5.10
2022-10-17T13:15:49.936Z,5.16
2022-10-17T13:16:58.439Z,4.81
2022-10-17T13:17:57.533Z,5.23
2022-10-17T13:18:55.457Z,4.79
2022-10-17T13:19:53.450Z,4.87
2022-10-17T13:21:01.966Z,5.00
2022-10-17T13:22:06.509Z,4.73
2022-10-17T13:23:04.697Z,4.93
2022-10-17T13:24:19.162Z,4.98